sensor_id;sensor_type;location;lat;lon;timestamp;temperature;humidity
49184;DHT22;35021;49.214;12.270;2022-08-19T00:01:23;23.40;67.30
49184;DHT22;35021;49.214;12.270;2022-08-19T00:03:59;23.40;67.30
49184;DHT22;35021;49.214;12.270;2022-08-19T00:06:27;23.40;67.30
49184;DHT22;35021;49.214;12.270;2022-08-19T00:08:56;23.40;67.30
49184;DHT22;35021;49.214;12.270;2022-08-19T00:11:23;23.40;67.20
49184;DHT22;35021;49.214;12.270;2022-08-19T00:13:52;23.40;67.20
49184;DHT22;35021;49.214;12.270;2022-08-19T00:16:21;23.40;67.20
49184;DHT22;35021;49.214;12.270;2022-08-19T00:18:52;23.40;67.20
49184;DHT22;35021;49.214;12.270;2022-08-19T00:21:19;23.40;67.10
49184;DHT22;35021;49.214;12.270;2022-08-19T00:23:47;23.40;67.10
49184;DHT22;35021;49.214;12.270;2022-08-19T00:26:13;23.40;67.10
49184;DHT22;35021;49.214;12.270;2022-08-19T00:28:40;23.40;67.10
49184;DHT22;35021;49.214;12.270;2022-08-19T00:31:08;23.40;67.10
49184;DHT22;35021;49.214;12.270;2022-08-19T00:33:35;23.30;67.10
49184;DHT22;35021;49.214;12.270;2022-08-19T00:36:06;23.30;67.20
49184;DHT22;35021;49.214;12.270;2022-08-19T00:38:35;23.30;67.20
49184;DHT22;35021;49.214;12.270;2022-08-19T00:41:05;23.30;67.20
49184;DHT22;35021;49.214;12.270;2022-08-19T00:43:33;23.20;67.20
49184;DHT22;35021;49.214;12.270;2022-08-19T00:46:00;23.20;67.20
49184;DHT22;35021;49.214;12.270;2022-08-19T00:48:32;23.20;67.20
49184;DHT22;35021;49.214;12.270;2022-08-19T00:51:00;23.20;67.20
49184;DHT22;35021;49.214;12.270;2022-08-19T00:53:30;23.20;67.20
49184;DHT22;35021;49.214;12.270;2022-08-19T00:55:59;23.20;67.20
49184;DHT22;35021;49.214;12.270;2022-08-19T00:58:31;23.20;67.00
49184;DHT22;35021;49.214;12.270;2022-08-19T01:00:59;23.20;67.00
49184;DHT22;35021;49.214;12.270;2022-08-19T01:03:27;23.20;67.00
49184;DHT22;35021;49.214;12.270;2022-08-19T01:06:15;23.20;66.90
49184;DHT22;35021;49.214;12.270;2022-08-19T01:08:46;23.20;66.90
49184;DHT22;35021;49.214;12.270;2022-08-19T01:11:16;23.20;66.80
49184;DHT22;35021;49.214;12.270;2022-08-19T01:13:44;23.20;66.90
49184;DHT22;35021;49.214;12.270;2022-08-19T01:16:17;23.20;67.00
49184;DHT22;35021;49.214;12.270;2022-08-19T01:18:45;23.20;67.00
49184;DHT22;35021;49.214;12.270;2022-08-19T01:23:49;23.20;67.00
49184;DHT22;35021;49.214;12.270;2022-08-19T01:26:22;23.20;67.00
49184;DHT22;35021;49.214;12.270;2022-08-19T01:28:54;23.20;67.00
49184;DHT22;35021;49.214;12.270;2022-08-19T01:31:27;23.10;67.00
49184;DHT22;35021;49.214;12.270;2022-08-19T01:33:59;23.10;66.90
49184;DHT22;35021;49.214;12.270;2022-08-19T01:36:31;23.10;66.90
49184;DHT22;35021;49.214;12.270;2022-08-19T01:38:59;23.20;66.90
49184;DHT22;35021;49.214;12.270;2022-08-19T01:41:26;23.20;67.00
49184;DHT22;35021;49.214;12.270;2022-08-19T01:43:54;23.20;66.90
49184;DHT22;35021;49.214;12.270;2022-08-19T01:46:42;23.20;67.00
49184;DHT22;35021;49.214;12.270;2022-08-19T01:49:10;23.20;67.00
49184;DHT22;35021;49.214;12.270;2022-08-19T01:51:37;23.20;67.00
49184;DHT22;35021;49.214;12.270;2022-08-19T01:54:07;23.20;67.00
49184;DHT22;35021;49.214;12.270;2022-08-19T01:56:34;23.20;66.90
49184;DHT22;35021;49.214;12.270;2022-08-19T01:59:05;23.20;66.90
49184;DHT22;35021;49.214;12.270;2022-08-19T02:01:32;23.20;66.90
49184;DHT22;35021;49.214;12.270;2022-08-19T02:04:01;23.20;66.90
49184;DHT22;35021;49.214;12.270;2022-08-19T02:06:29;23.20;66.90
49184;DHT22;35021;49.214;12.270;2022-08-19T02:08:56;23.20;66.90
49184;DHT22;35021;49.214;12.270;2022-08-19T02:11:29;23.20;66.90
49184;DHT22;35021;49.214;12.270;2022-08-19T02:13:59;23.20;67.00
49184;DHT22;35021;49.214;12.270;2022-08-19T02:16:26;23.20;67.00
49184;DHT22;35021;49.214;12.270;2022-08-19T02:18:53;23.20;67.60
49184;DHT22;35021;49.214;12.270;2022-08-19T02:21:22;23.20;67.00
49184;DHT22;35021;49.214;12.270;2022-08-19T02:23:50;23.30;67.10
49184;DHT22;35021;49.214;12.270;2022-08-19T02:26:17;23.20;67.00
49184;DHT22;35021;49.214;12.270;2022-08-19T02:28:45;23.20;67.00
49184;DHT22;35021;49.214;12.270;2022-08-19T02:31:15;23.30;67.10
49184;DHT22;35021;49.214;12.270;2022-08-19T02:33:45;23.30;67.10
49184;DHT22;35021;49.214;12.270;2022-08-19T02:36:13;23.30;67.10
49184;DHT22;35021;49.214;12.270;2022-08-19T02:38:42;23.30;67.20
49184;DHT22;35021;49.214;12.270;2022-08-19T02:41:23;23.30;67.10
49184;DHT22;35021;49.214;12.270;2022-08-19T02:43:54;23.30;67.10
49184;DHT22;35021;49.214;12.270;2022-08-19T02:46:41;23.30;67.10
49184;DHT22;35021;49.214;12.270;2022-08-19T02:49:08;23.30;67.20
49184;DHT22;35021;49.214;12.270;2022-08-19T02:51:37;23.30;67.20
49184;DHT22;35021;49.214;12.270;2022-08-19T02:54:06;23.30;67.30
49184;DHT22;35021;49.214;12.270;2022-08-19T02:56:35;23.20;67.20
49184;DHT22;35021;49.214;12.270;2022-08-19T02:59:03;23.20;67.20
49184;DHT22;35021;49.214;12.270;2022-08-19T03:01:36;23.20;67.20
49184;DHT22;35021;49.214;12.270;2022-08-19T03:04:05;23.20;67.20
49184;DHT22;35021;49.214;12.270;2022-08-19T03:06:36;23.20;67.30
49184;DHT22;35021;49.214;12.270;2022-08-19T03:09:03;23.20;67.30
49184;DHT22;35021;49.214;12.270;2022-08-19T03:11:31;23.20;67.20
49184;DHT22;35021;49.214;12.270;2022-08-19T03:13:59;23.20;67.20
49184;DHT22;35021;49.214;12.270;2022-08-19T03:16:28;23.20;67.30
49184;DHT22;35021;49.214;12.270;2022-08-19T03:19:00;23.20;67.30
49184;DHT22;35021;49.214;12.270;2022-08-19T03:21:30;23.20;67.30
49184;DHT22;35021;49.214;12.270;2022-08-19T03:24:00;23.20;67.30
49184;DHT22;35021;49.214;12.270;2022-08-19T03:26:28;23.20;67.30
49184;DHT22;35021;49.214;12.270;2022-08-19T03:28:55;23.20;67.40
49184;DHT22;35021;49.214;12.270;2022-08-19T03:31:26;23.20;67.40
49184;DHT22;35021;49.214;12.270;2022-08-19T03:34:18;23.20;67.40
49184;DHT22;35021;49.214;12.270;2022-08-19T03:36:46;23.20;67.30
49184;DHT22;35021;49.214;12.270;2022-08-19T03:39:14;23.20;67.30
49184;DHT22;35021;49.214;12.270;2022-08-19T03:41:42;23.20;67.30
49184;DHT22;35021;49.214;12.270;2022-08-19T03:44:18;23.20;67.30
49184;DHT22;35021;49.214;12.270;2022-08-19T03:46:48;23.20;67.30
49184;DHT22;35021;49.214;12.270;2022-08-19T03:49:15;23.20;67.30
49184;DHT22;35021;49.214;12.270;2022-08-19T03:51:44;23.20;67.30
49184;DHT22;35021;49.214;12.270;2022-08-19T03:54:14;23.20;67.30
49184;DHT22;35021;49.214;12.270;2022-08-19T03:56:43;23.20;67.30
49184;DHT22;35021;49.214;12.270;2022-08-19T03:59:13;23.20;67.30
49184;DHT22;35021;49.214;12.270;2022-08-19T04:01:41;23.20;67.20
49184;DHT22;35021;49.214;12.270;2022-08-19T04:04:08;23.20;67.20
49184;DHT22;35021;49.214;12.270;2022-08-19T04:06:37;23.20;67.20
49184;DHT22;35021;49.214;12.270;2022-08-19T04:09:08;23.20;67.20
49184;DHT22;35021;49.214;12.270;2022-08-19T04:11:44;23.20;67.30
49184;DHT22;35021;49.214;12.270;2022-08-19T04:14:12;23.20;67.90
49184;DHT22;35021;49.214;12.270;2022-08-19T04:16:41;23.20;67.20
49184;DHT22;35021;49.214;12.270;2022-08-19T04:19:09;23.20;67.20
49184;DHT22;35021;49.214;12.270;2022-08-19T04:21:36;23.20;67.30
49184;DHT22;35021;49.214;12.270;2022-08-19T04:24:03;23.20;67.30
49184;DHT22;35021;49.214;12.270;2022-08-19T04:26:34;23.20;67.30
49184;DHT22;35021;49.214;12.270;2022-08-19T04:29:05;23.30;67.30
49184;DHT22;35021;49.214;12.270;2022-08-19T04:31:39;23.30;67.30
49184;DHT22;35021;49.214;12.270;2022-08-19T04:34:09;23.20;67.20
49184;DHT22;35021;49.214;12.270;2022-08-19T04:36:39;23.20;67.20
49184;DHT22;35021;49.214;12.270;2022-08-19T04:39:18;23.20;67.20
49184;DHT22;35021;49.214;12.270;2022-08-19T04:41:46;23.20;67.30
49184;DHT22;35021;49.214;12.270;2022-08-19T04:44:33;23.20;67.40
49184;DHT22;35021;49.214;12.270;2022-08-19T04:47:02;23.20;67.50
49184;DHT22;35021;49.214;12.270;2022-08-19T04:49:37;23.10;67.50
49184;DHT22;35021;49.214;12.270;2022-08-19T04:52:04;23.10;67.60
49184;DHT22;35021;49.214;12.270;2022-08-19T04:54:30;23.10;67.60
49184;DHT22;35021;49.214;12.270;2022-08-19T04:57:07;23.10;67.70
49184;DHT22;35021;49.214;12.270;2022-08-19T04:59:35;23.10;67.80
49184;DHT22;35021;49.214;12.270;2022-08-19T05:02:03;23.10;67.80
49184;DHT22;35021;49.214;12.270;2022-08-19T05:04:30;23.10;67.90
49184;DHT22;35021;49.214;12.270;2022-08-19T05:06:59;23.10;67.90
49184;DHT22;35021;49.214;12.270;2022-08-19T05:09:28;23.10;68.00
49184;DHT22;35021;49.214;12.270;2022-08-19T05:12:16;23.10;68.00
49184;DHT22;35021;49.214;12.270;2022-08-19T05:14:43;23.00;67.90
49184;DHT22;35021;49.214;12.270;2022-08-19T05:17:11;23.10;67.90
49184;DHT22;35021;49.214;12.270;2022-08-19T05:19:58;23.10;68.00
49184;DHT22;35021;49.214;12.270;2022-08-19T05:22:46;23.10;68.00
49184;DHT22;35021;49.214;12.270;2022-08-19T05:25:17;23.10;68.10
49184;DHT22;35021;49.214;12.270;2022-08-19T05:27:46;23.10;68.10
49184;DHT22;35021;49.214;12.270;2022-08-19T05:30:14;23.10;68.10
49184;DHT22;35021;49.214;12.270;2022-08-19T05:32:41;23.10;68.10
49184;DHT22;35021;49.214;12.270;2022-08-19T05:35:08;23.00;68.20
49184;DHT22;35021;49.214;12.270;2022-08-19T05:37:36;23.00;68.20
49184;DHT22;35021;49.214;12.270;2022-08-19T05:40:04;23.00;68.20
49184;DHT22;35021;49.214;12.270;2022-08-19T05:42:31;23.00;68.20
49184;DHT22;35021;49.214;12.270;2022-08-19T05:44:58;23.00;68.20
49184;DHT22;35021;49.214;12.270;2022-08-19T05:47:25;23.00;68.20
49184;DHT22;35021;49.214;12.270;2022-08-19T05:49:52;23.00;68.20
49184;DHT22;35021;49.214;12.270;2022-08-19T05:52:19;23.00;68.20
49184;DHT22;35021;49.214;12.270;2022-08-19T05:54:51;23.00;68.20
49184;DHT22;35021;49.214;12.270;2022-08-19T05:57:19;23.00;68.20
49184;DHT22;35021;49.214;12.270;2022-08-19T05:59:46;23.00;68.20
49184;DHT22;35021;49.214;12.270;2022-08-19T06:02:18;23.00;68.20
49184;DHT22;35021;49.214;12.270;2022-08-19T06:04:45;23.00;68.20
49184;DHT22;35021;49.214;12.270;2022-08-19T06:07:11;23.00;68.20
49184;DHT22;35021;49.214;12.270;2022-08-19T06:09:39;23.00;68.10
49184;DHT22;35021;49.214;12.270;2022-08-19T06:12:09;23.00;68.20
49184;DHT22;35021;49.214;12.270;2022-08-19T06:14:36;23.00;68.20
49184;DHT22;35021;49.214;12.270;2022-08-19T06:17:07;23.10;68.20
49184;DHT22;35021;49.214;12.270;2022-08-19T06:19:35;23.00;68.10
49184;DHT22;35021;49.214;12.270;2022-08-19T06:22:07;23.00;68.10
49184;DHT22;35021;49.214;12.270;2022-08-19T06:24:34;23.00;68.20
49184;DHT22;35021;49.214;12.270;2022-08-19T06:27:03;23.00;68.40
49184;DHT22;35021;49.214;12.270;2022-08-19T06:29:32;22.90;68.50
49184;DHT22;35021;49.214;12.270;2022-08-19T06:32:02;22.90;68.70
49184;DHT22;35021;49.214;12.270;2022-08-19T06:34:31;22.90;68.80
49184;DHT22;35021;49.214;12.270;2022-08-19T06:36:59;22.90;68.90
49184;DHT22;35021;49.214;12.270;2022-08-19T06:39:34;22.90;69.00
49184;DHT22;35021;49.214;12.270;2022-08-19T06:42:04;22.90;69.10
49184;DHT22;35021;49.214;12.270;2022-08-19T06:44:37;22.90;69.20
49184;DHT22;35021;49.214;12.270;2022-08-19T06:47:12;22.90;69.20
49184;DHT22;35021;49.214;12.270;2022-08-19T06:49:52;22.90;69.30
49184;DHT22;35021;49.214;12.270;2022-08-19T06:52:19;22.90;69.40
49184;DHT22;35021;49.214;12.270;2022-08-19T06:54:46;22.80;69.40
49184;DHT22;35021;49.214;12.270;2022-08-19T06:57:26;22.80;69.40
49184;DHT22;35021;49.214;12.270;2022-08-19T06:59:53;22.80;69.40
49184;DHT22;35021;49.214;12.270;2022-08-19T07:02:20;22.80;69.40
49184;DHT22;35021;49.214;12.270;2022-08-19T07:04:47;22.80;69.40
49184;DHT22;35021;49.214;12.270;2022-08-19T07:07:20;22.80;69.40
49184;DHT22;35021;49.214;12.270;2022-08-19T07:09:48;22.80;69.40
49184;DHT22;35021;49.214;12.270;2022-08-19T07:12:27;22.80;69.50
49184;DHT22;35021;49.214;12.270;2022-08-19T07:14:56;22.80;69.60
49184;DHT22;35021;49.214;12.270;2022-08-19T07:17:25;22.80;69.60
49184;DHT22;35021;49.214;12.270;2022-08-19T07:19:52;22.80;69.60
49184;DHT22;35021;49.214;12.270;2022-08-19T07:22:21;22.70;69.60
49184;DHT22;35021;49.214;12.270;2022-08-19T07:24:51;22.70;69.50
49184;DHT22;35021;49.214;12.270;2022-08-19T07:27:18;22.70;69.50
49184;DHT22;35021;49.214;12.270;2022-08-19T07:29:51;22.70;69.40
49184;DHT22;35021;49.214;12.270;2022-08-19T07:32:23;22.70;69.50
49184;DHT22;35021;49.214;12.270;2022-08-19T07:34:53;22.70;69.50
49184;DHT22;35021;49.214;12.270;2022-08-19T07:37:19;22.70;69.30
49184;DHT22;35021;49.214;12.270;2022-08-19T07:39:47;22.70;69.40
49184;DHT22;35021;49.214;12.270;2022-08-19T07:42:14;22.70;69.40
49184;DHT22;35021;49.214;12.270;2022-08-19T07:44:41;22.70;69.40
49184;DHT22;35021;49.214;12.270;2022-08-19T07:47:17;22.80;69.40
49184;DHT22;35021;49.214;12.270;2022-08-19T07:50:07;22.70;69.30
49184;DHT22;35021;49.214;12.270;2022-08-19T07:52:34;22.70;69.30
49184;DHT22;35021;49.214;12.270;2022-08-19T07:55:04;22.70;69.20
49184;DHT22;35021;49.214;12.270;2022-08-19T07:57:31;22.70;69.30
49184;DHT22;35021;49.214;12.270;2022-08-19T07:59:58;22.70;69.30
49184;DHT22;35021;49.214;12.270;2022-08-19T08:02:25;22.70;69.20
49184;DHT22;35021;49.214;12.270;2022-08-19T08:04:52;22.70;69.30
49184;DHT22;35021;49.214;12.270;2022-08-19T08:07:38;22.70;69.40
49184;DHT22;35021;49.214;12.270;2022-08-19T08:10:24;22.70;69.50
49184;DHT22;35021;49.214;12.270;2022-08-19T08:12:52;22.60;69.40
49184;DHT22;35021;49.214;12.270;2022-08-19T08:15:37;22.60;69.40
49184;DHT22;35021;49.214;12.270;2022-08-19T08:18:10;22.70;69.70
49184;DHT22;35021;49.214;12.270;2022-08-19T08:20:38;22.60;69.60
49184;DHT22;35021;49.214;12.270;2022-08-19T08:23:05;22.60;69.70
49184;DHT22;35021;49.214;12.270;2022-08-19T08:25:52;22.60;69.70
49184;DHT22;35021;49.214;12.270;2022-08-19T08:28:20;22.60;69.70
49184;DHT22;35021;49.214;12.270;2022-08-19T08:30:48;22.60;69.70
49184;DHT22;35021;49.214;12.270;2022-08-19T08:33:22;22.60;69.70
49184;DHT22;35021;49.214;12.270;2022-08-19T08:36:06;22.60;69.70
49184;DHT22;35021;49.214;12.270;2022-08-19T08:38:36;22.60;69.70
49184;DHT22;35021;49.214;12.270;2022-08-19T08:41:22;22.60;69.70
49184;DHT22;35021;49.214;12.270;2022-08-19T08:43:55;22.60;69.80
49184;DHT22;35021;49.214;12.270;2022-08-19T08:46:35;22.60;69.80
49184;DHT22;35021;49.214;12.270;2022-08-19T08:51:47;22.50;69.70
49184;DHT22;35021;49.214;12.270;2022-08-19T08:54:41;22.50;69.90
49184;DHT22;35021;49.214;12.270;2022-08-19T08:57:35;22.50;70.00
49184;DHT22;35021;49.214;12.270;2022-08-19T09:00:12;22.50;70.10
49184;DHT22;35021;49.214;12.270;2022-08-19T09:02:42;22.50;70.50
49184;DHT22;35021;49.214;12.270;2022-08-19T09:05:10;22.50;70.50
49184;DHT22;35021;49.214;12.270;2022-08-19T09:07:45;22.50;70.70
49184;DHT22;35021;49.214;12.270;2022-08-19T09:10:25;22.50;70.80
49184;DHT22;35021;49.214;12.270;2022-08-19T09:15:45;22.60;70.80
49184;DHT22;35021;49.214;12.270;2022-08-19T09:18:15;22.60;71.00
49184;DHT22;35021;49.214;12.270;2022-08-19T09:20:46;22.60;71.10
49184;DHT22;35021;49.214;12.270;2022-08-19T09:23:15;22.60;71.00
49184;DHT22;35021;49.214;12.270;2022-08-19T09:25:42;22.60;70.90
49184;DHT22;35021;49.214;12.270;2022-08-19T09:28:09;22.60;70.70
49184;DHT22;35021;49.214;12.270;2022-08-19T09:30:48;22.60;70.80
49184;DHT22;35021;49.214;12.270;2022-08-19T09:33:18;22.60;71.60
49184;DHT22;35021;49.214;12.270;2022-08-19T09:35:46;22.60;70.90
49184;DHT22;35021;49.214;12.270;2022-08-19T09:38:19;22.60;70.90
49184;DHT22;35021;49.214;12.270;2022-08-19T09:40:46;22.60;70.70
49184;DHT22;35021;49.214;12.270;2022-08-19T09:43:13;22.60;70.70
49184;DHT22;35021;49.214;12.270;2022-08-19T09:45:59;22.70;70.60
49184;DHT22;35021;49.214;12.270;2022-08-19T09:48:26;22.60;70.50
49184;DHT22;35021;49.214;12.270;2022-08-19T09:50:54;22.70;70.50
49184;DHT22;35021;49.214;12.270;2022-08-19T09:53:20;22.70;70.50
49184;DHT22;35021;49.214;12.270;2022-08-19T09:55:51;22.70;70.40
49184;DHT22;35021;49.214;12.270;2022-08-19T09:58:18;22.70;70.30
49184;DHT22;35021;49.214;12.270;2022-08-19T10:00:52;22.80;70.20
49184;DHT22;35021;49.214;12.270;2022-08-19T10:03:20;22.80;70.10
49184;DHT22;35021;49.214;12.270;2022-08-19T10:05:52;22.80;69.90
49184;DHT22;35021;49.214;12.270;2022-08-19T10:08:39;22.80;69.90
49184;DHT22;35021;49.214;12.270;2022-08-19T10:11:16;22.80;69.80
49184;DHT22;35021;49.214;12.270;2022-08-19T10:14:03;22.80;69.70
49184;DHT22;35021;49.214;12.270;2022-08-19T10:16:32;22.80;69.70
49184;DHT22;35021;49.214;12.270;2022-08-19T10:19:05;22.80;69.80
49184;DHT22;35021;49.214;12.270;2022-08-19T10:21:33;22.80;69.60
49184;DHT22;35021;49.214;12.270;2022-08-19T10:24:06;22.80;69.70
49184;DHT22;35021;49.214;12.270;2022-08-19T10:26:38;22.80;69.70
49184;DHT22;35021;49.214;12.270;2022-08-19T10:29:08;22.80;69.70
49184;DHT22;35021;49.214;12.270;2022-08-19T10:31:36;22.80;69.70
49184;DHT22;35021;49.214;12.270;2022-08-19T10:34:23;22.80;69.70
49184;DHT22;35021;49.214;12.270;2022-08-19T10:36:55;22.80;69.50
49184;DHT22;35021;49.214;12.270;2022-08-19T10:39:30;22.80;69.50
49184;DHT22;35021;49.214;12.270;2022-08-19T10:42:08;22.90;69.50
49184;DHT22;35021;49.214;12.270;2022-08-19T10:44:40;22.90;69.40
49184;DHT22;35021;49.214;12.270;2022-08-19T10:47:08;22.90;69.30
49184;DHT22;35021;49.214;12.270;2022-08-19T10:49:51;22.90;69.30
49184;DHT22;35021;49.214;12.270;2022-08-19T10:52:40;22.90;69.20
49184;DHT22;35021;49.214;12.270;2022-08-19T10:55:21;22.90;69.10
49184;DHT22;35021;49.214;12.270;2022-08-19T10:58:15;22.90;69.10
49184;DHT22;35021;49.214;12.270;2022-08-19T11:00:43;22.90;69.10
49184;DHT22;35021;49.214;12.270;2022-08-19T11:03:17;22.90;69.20
49184;DHT22;35021;49.214;12.270;2022-08-19T11:05:45;22.90;69.20
49184;DHT22;35021;49.214;12.270;2022-08-19T11:08:12;22.90;69.10
49184;DHT22;35021;49.214;12.270;2022-08-19T11:10:54;22.90;69.20
49184;DHT22;35021;49.214;12.270;2022-08-19T11:13:29;22.90;69.30
49184;DHT22;35021;49.214;12.270;2022-08-19T11:16:03;23.00;69.20
49184;DHT22;35021;49.214;12.270;2022-08-19T11:18:38;22.90;69.20
49184;DHT22;35021;49.214;12.270;2022-08-19T11:23:38;22.90;69.10
49184;DHT22;35021;49.214;12.270;2022-08-19T11:26:05;22.90;69.00
49184;DHT22;35021;49.214;12.270;2022-08-19T11:28:32;22.90;69.20
49184;DHT22;35021;49.214;12.270;2022-08-19T11:30:59;22.90;69.20
49184;DHT22;35021;49.214;12.270;2022-08-19T11:33:26;22.90;69.20
49184;DHT22;35021;49.214;12.270;2022-08-19T11:35:53;22.90;69.10
49184;DHT22;35021;49.214;12.270;2022-08-19T11:38:20;22.90;69.10
49184;DHT22;35021;49.214;12.270;2022-08-19T11:40:54;22.90;68.90
49184;DHT22;35021;49.214;12.270;2022-08-19T11:43:21;22.90;68.90
49184;DHT22;35021;49.214;12.270;2022-08-19T11:45:48;22.90;69.00
49184;DHT22;35021;49.214;12.270;2022-08-19T11:48:15;22.90;69.00
49184;DHT22;35021;49.214;12.270;2022-08-19T11:50:42;22.90;69.00
49184;DHT22;35021;49.214;12.270;2022-08-19T11:53:10;22.90;69.00
49184;DHT22;35021;49.214;12.270;2022-08-19T11:55:38;22.90;68.90
49184;DHT22;35021;49.214;12.270;2022-08-19T11:58:10;22.90;68.80
49184;DHT22;35021;49.214;12.270;2022-08-19T12:00:44;22.90;68.60
49184;DHT22;35021;49.214;12.270;2022-08-19T12:03:12;22.90;68.60
49184;DHT22;35021;49.214;12.270;2022-08-19T12:05:41;23.00;68.70
49184;DHT22;35021;49.214;12.270;2022-08-19T12:08:08;22.90;68.70
49184;DHT22;35021;49.214;12.270;2022-08-19T12:10:36;22.90;68.70
49184;DHT22;35021;49.214;12.270;2022-08-19T12:13:03;23.00;68.70
49184;DHT22;35021;49.214;12.270;2022-08-19T12:15:30;23.00;68.60
49184;DHT22;35021;49.214;12.270;2022-08-19T12:18:04;23.00;68.50
49184;DHT22;35021;49.214;12.270;2022-08-19T12:20:37;23.00;68.50
49184;DHT22;35021;49.214;12.270;2022-08-19T12:23:06;23.00;68.40
49184;DHT22;35021;49.214;12.270;2022-08-19T12:25:33;23.00;68.20
49184;DHT22;35021;49.214;12.270;2022-08-19T12:28:01;23.00;68.20
49184;DHT22;35021;49.214;12.270;2022-08-19T12:30:29;23.00;68.10
49184;DHT22;35021;49.214;12.270;2022-08-19T12:32:57;23.00;68.20
49184;DHT22;35021;49.214;12.270;2022-08-19T12:35:24;22.90;68.40
49184;DHT22;35021;49.214;12.270;2022-08-19T12:37:50;22.90;68.40
49184;DHT22;35021;49.214;12.270;2022-08-19T12:40:23;22.90;68.80
49184;DHT22;35021;49.214;12.270;2022-08-19T12:42:53;22.90;69.00
49184;DHT22;35021;49.214;12.270;2022-08-19T12:45:20;22.90;69.80
49184;DHT22;35021;49.214;12.270;2022-08-19T12:47:47;22.90;70.40
49184;DHT22;35021;49.214;12.270;2022-08-19T12:50:15;22.90;70.90
49184;DHT22;35021;49.214;12.270;2022-08-19T12:52:42;22.90;71.40
49184;DHT22;35021;49.214;12.270;2022-08-19T12:55:09;22.90;71.60
49184;DHT22;35021;49.214;12.270;2022-08-19T12:57:38;22.90;71.40
49184;DHT22;35021;49.214;12.270;2022-08-19T13:00:12;22.90;71.60
49184;DHT22;35021;49.214;12.270;2022-08-19T13:02:41;22.90;71.60
49184;DHT22;35021;49.214;12.270;2022-08-19T13:05:12;22.90;71.70
49184;DHT22;35021;49.214;12.270;2022-08-19T13:07:41;22.90;71.30
49184;DHT22;35021;49.214;12.270;2022-08-19T13:10:12;22.90;71.10
49184;DHT22;35021;49.214;12.270;2022-08-19T13:12:42;22.90;71.10
49184;DHT22;35021;49.214;12.270;2022-08-19T13:15:09;22.90;71.80
49184;DHT22;35021;49.214;12.270;2022-08-19T13:17:38;22.90;71.20
49184;DHT22;35021;49.214;12.270;2022-08-19T13:20:09;22.80;71.10
49184;DHT22;35021;49.214;12.270;2022-08-19T13:22:37;22.80;71.10
49184;DHT22;35021;49.214;12.270;2022-08-19T13:25:05;22.80;71.20
49184;DHT22;35021;49.214;12.270;2022-08-19T13:27:32;22.80;71.00
49184;DHT22;35021;49.214;12.270;2022-08-19T13:30:00;22.80;71.10
49184;DHT22;35021;49.214;12.270;2022-08-19T13:32:45;22.80;71.10
49184;DHT22;35021;49.214;12.270;2022-08-19T13:35:31;22.80;71.20
49184;DHT22;35021;49.214;12.270;2022-08-19T13:37:58;22.80;71.30
49184;DHT22;35021;49.214;12.270;2022-08-19T13:40:25;22.80;71.20
49184;DHT22;35021;49.214;12.270;2022-08-19T13:42:54;22.80;71.20
49184;DHT22;35021;49.214;12.270;2022-08-19T13:45:23;22.80;71.20
49184;DHT22;35021;49.214;12.270;2022-08-19T13:47:53;22.80;71.20
49184;DHT22;35021;49.214;12.270;2022-08-19T13:50:29;22.80;71.20
49184;DHT22;35021;49.214;12.270;2022-08-19T13:52:58;22.80;71.10
49184;DHT22;35021;49.214;12.270;2022-08-19T13:55:25;22.80;71.00
49184;DHT22;35021;49.214;12.270;2022-08-19T13:57:55;22.80;70.90
49184;DHT22;35021;49.214;12.270;2022-08-19T14:00:23;22.80;70.90
49184;DHT22;35021;49.214;12.270;2022-08-19T14:02:54;22.80;71.00
49184;DHT22;35021;49.214;12.270;2022-08-19T14:05:23;22.80;71.10
49184;DHT22;35021;49.214;12.270;2022-08-19T14:07:50;22.80;71.10
49184;DHT22;35021;49.214;12.270;2022-08-19T14:10:17;22.80;71.10
49184;DHT22;35021;49.214;12.270;2022-08-19T14:12:46;22.80;71.10
49184;DHT22;35021;49.214;12.270;2022-08-19T14:15:14;22.80;71.20
49184;DHT22;35021;49.214;12.270;2022-08-19T14:17:43;22.80;71.20
49184;DHT22;35021;49.214;12.270;2022-08-19T14:20:12;22.80;71.10
49184;DHT22;35021;49.214;12.270;2022-08-19T14:22:45;22.80;71.10
49184;DHT22;35021;49.214;12.270;2022-08-19T14:25:19;22.70;71.10
49184;DHT22;35021;49.214;12.270;2022-08-19T14:27:46;22.70;71.30
49184;DHT22;35021;49.214;12.270;2022-08-19T14:30:18;22.70;71.30
49184;DHT22;35021;49.214;12.270;2022-08-19T14:32:46;22.70;71.40
49184;DHT22;35021;49.214;12.270;2022-08-19T14:35:14;22.70;71.30
49184;DHT22;35021;49.214;12.270;2022-08-19T14:37:43;22.70;71.80
49184;DHT22;35021;49.214;12.270;2022-08-19T14:40:17;22.60;71.80
49184;DHT22;35021;49.214;12.270;2022-08-19T14:42:47;22.60;71.90
49184;DHT22;35021;49.214;12.270;2022-08-19T14:45:15;22.60;72.10
49184;DHT22;35021;49.214;12.270;2022-08-19T14:47:41;22.60;72.20
49184;DHT22;35021;49.214;12.270;2022-08-19T14:50:11;22.60;72.30
49184;DHT22;35021;49.214;12.270;2022-08-19T14:52:48;22.60;72.40
49184;DHT22;35021;49.214;12.270;2022-08-19T14:55:16;22.60;72.70
49184;DHT22;35021;49.214;12.270;2022-08-19T14:57:44;22.60;72.90
49184;DHT22;35021;49.214;12.270;2022-08-19T15:00:12;22.60;72.90
49184;DHT22;35021;49.214;12.270;2022-08-19T15:02:42;22.60;73.50
49184;DHT22;35021;49.214;12.270;2022-08-19T15:05:11;22.60;73.70
49184;DHT22;35021;49.214;12.270;2022-08-19T15:07:39;22.60;74.20
49184;DHT22;35021;49.214;12.270;2022-08-19T15:10:07;22.60;74.60
49184;DHT22;35021;49.214;12.270;2022-08-19T15:12:35;22.60;74.90
49184;DHT22;35021;49.214;12.270;2022-08-19T15:15:02;22.60;74.90
49184;DHT22;35021;49.214;12.270;2022-08-19T15:17:29;22.60;74.80
49184;DHT22;35021;49.214;12.270;2022-08-19T15:20:16;22.60;74.80
49184;DHT22;35021;49.214;12.270;2022-08-19T15:22:43;22.60;74.90
49184;DHT22;35021;49.214;12.270;2022-08-19T15:25:12;22.60;75.00
49184;DHT22;35021;49.214;12.270;2022-08-19T15:27:40;22.60;75.20
49184;DHT22;35021;49.214;12.270;2022-08-19T15:30:08;22.60;75.20
49184;DHT22;35021;49.214;12.270;2022-08-19T15:32:36;22.60;75.40
49184;DHT22;35021;49.214;12.270;2022-08-19T15:35:05;22.60;75.40
49184;DHT22;35021;49.214;12.270;2022-08-19T15:37:33;22.60;75.60
49184;DHT22;35021;49.214;12.270;2022-08-19T15:40:04;22.60;75.70
49184;DHT22;35021;49.214;12.270;2022-08-19T15:42:35;22.60;75.70
49184;DHT22;35021;49.214;12.270;2022-08-19T15:45:03;22.60;75.70
49184;DHT22;35021;49.214;12.270;2022-08-19T15:47:31;22.60;75.80